Normans Crossing, Texas
Current Conditions -  °F | °C
As of 9:55 PM on Tuesday 21 Oct 2014 (Local Time) from KGRK Reporting Station
Broken Clouds Broken Clouds  
Wind Chill: 72°   Ceiling: 20000
Heat Index: 72°   Visibility: 7mi
Dew Point: 50°   Wind: 5mph
Humidity: 46%   Direction: 90°E
Pressure: 30.06"   Gusts: NA
Location:  30.5793°N, 97.5096°W
Report Text: KGRK 220255Z 09004KT 7SM BKN200 22/10 A3006 RMK SLP180 53003
Loading
Personal Weather Stations






























Interactive Weather Map
Tropical Storm Tracking
New forecast layout! Learn more

10-Day Weather Forecast

Advertisements
Track Severe Weather on mobile